createdAt,value
2022-08-04T00:01:23.873Z,12.30
2022-08-04T00:03:58.474Z,12.30
2022-08-04T00:06:48.962Z,12.30
2022-08-04T00:09:49.542Z,12.50
2022-08-04T00:12:17.813Z,12.50
2022-08-04T00:14:50.791Z,12.30
2022-08-04T00:17:21.275Z,12.40
2022-08-04T00:19:51.836Z,12.40
2022-08-04T00:22:23.391Z,12.50
2022-08-04T00:24:50.355Z,12.50
2022-08-04T00:27:17.471Z,12.60
2022-08-04T00:29:47.008Z,12.50
2022-08-04T00:32:14.700Z,12.30
2022-08-04T00:35:01.934Z,12.20
2022-08-04T00:37:29.007Z,12.00
2022-08-04T00:39:56.968Z,12.10
2022-08-04T00:42:58.319Z,12.10
2022-08-04T00:46:17.041Z,12.10
2022-08-04T00:49:10.935Z,12.00
2022-08-04T00:51:40.894Z,12.00
2022-08-04T00:54:26.306Z,12.00
2022-08-04T00:57:33.387Z,11.90
2022-08-04T01:00:12.221Z,11.90
2022-08-04T01:03:14.755Z,11.80
2022-08-04T01:05:47.682Z,11.70
2022-08-04T01:08:47.301Z,11.60
2022-08-04T01:11:58.764Z,11.50
2022-08-04T01:14:47.541Z,11.50
2022-08-04T01:17:43.753Z,11.70
2022-08-04T01:20:14.874Z,11.80
2022-08-04T01:23:10.069Z,11.90
2022-08-04T01:25:58.430Z,11.90
2022-08-04T01:28:49.615Z,11.80
2022-08-04T01:31:30.583Z,11.70
2022-08-04T01:34:03.640Z,11.60
2022-08-04T01:36:35.744Z,11.60
2022-08-04T01:39:23.148Z,11.60
2022-08-04T01:41:58.477Z,11.80
2022-08-04T01:44:28.540Z,11.80
2022-08-04T01:46:55.873Z,11.80
2022-08-04T01:49:24.222Z,11.70
2022-08-04T01:51:52.371Z,11.60
2022-08-04T01:54:19.980Z,11.60
2022-08-04T01:56:56.619Z,11.50
2022-08-04T01:59:24.802Z,11.70
2022-08-04T02:01:53.272Z,11.70
2022-08-04T02:04:23.278Z,11.50
2022-08-04T02:06:56.636Z,11.50
2022-08-04T02:09:32.387Z,11.40
2022-08-04T02:12:23.386Z,11.40
2022-08-04T02:15:25.987Z,11.30
2022-08-04T02:18:03.507Z,11.30
2022-08-04T02:20:43.372Z,11.30
2022-08-04T02:23:14.133Z,11.20
2022-08-04T02:25:51.810Z,11.20
2022-08-04T02:28:23.310Z,11.20
2022-08-04T02:31:02.075Z,11.20
2022-08-04T02:33:37.808Z,11.30
2022-08-04T02:36:06.789Z,11.40
2022-08-04T02:38:55.515Z,11.30
2022-08-04T02:41:25.164Z,11.20
2022-08-04T02:43:55.227Z,11.20
2022-08-04T02:46:23.295Z,11.30
2022-08-04T02:48:53.063Z,11.30
2022-08-04T02:51:32.328Z,11.40
2022-08-04T02:54:01.880Z,11.70
2022-08-04T02:56:31.974Z,11.90
2022-08-04T02:59:09.715Z,12.30
2022-08-04T03:01:37.645Z,12.90
2022-08-04T03:04:55.552Z,13.90
2022-08-04T03:07:31.685Z,15.50
2022-08-04T03:10:13.844Z,16.50
2022-08-04T03:13:19.452Z,17.20
2022-08-04T03:15:58.787Z,17.40
2022-08-04T03:18:54.014Z,17.60
2022-08-04T03:21:54.695Z,18.10
2022-08-04T03:24:50.242Z,18.10
2022-08-04T03:27:22.954Z,17.30
2022-08-04T03:30:05.060Z,16.40
2022-08-04T03:32:56.902Z,15.70
2022-08-04T03:36:13.174Z,15.50
2022-08-04T03:39:17.486Z,16.20
2022-08-04T03:42:04.039Z,17.80
2022-08-04T03:44:49.931Z,18.10
2022-08-04T03:47:16.767Z,17.20
2022-08-04T03:50:10.183Z,16.30
2022-08-04T03:53:14.407Z,15.70
2022-08-04T03:56:05.794Z,15.20
2022-08-04T03:58:55.979Z,14.90
2022-08-04T04:02:02.451Z,15.00
2022-08-04T04:04:44.670Z,15.60
2022-08-04T04:07:35.775Z,16.10
2022-08-04T04:10:19.245Z,15.90
2022-08-04T04:13:25.093Z,15.40
2022-08-04T04:16:18.424Z,15.10
2022-08-04T04:19:08.567Z,15.10
2022-08-04T04:22:06.387Z,15.30
2022-08-04T04:24:48.152Z,15.70
2022-08-04T04:27:15.719Z,15.60
2022-08-04T04:30:08.061Z,15.60
2022-08-04T04:33:12.511Z,15.90
2022-08-04T04:36:07.351Z,15.80
2022-08-04T04:39:19.846Z,15.80
2022-08-04T04:42:19.641Z,15.90
2022-08-04T04:44:57.145Z,15.90
2022-08-04T04:48:08.229Z,15.90
2022-08-04T04:51:03.293Z,16.10
2022-08-04T04:53:45.481Z,16.20
2022-08-04T04:56:41.059Z,16.30
2022-08-04T04:59:13.153Z,16.50
2022-08-04T05:01:42.851Z,16.70
2022-08-04T05:04:28.204Z,16.80
2022-08-04T05:07:25.616Z,17.00
2022-08-04T05:10:18.887Z,17.10
2022-08-04T05:14:31.675Z,17.30
2022-08-04T05:15:59.047Z,17.60
2022-08-04T05:18:29.736Z,17.70
2022-08-04T05:21:06.427Z,17.90
2022-08-04T05:23:37.674Z,18.00
2022-08-04T05:26:15.017Z,18.20
2022-08-04T05:31:23.465Z,18.60
2022-08-04T05:34:14.075Z,18.70
2022-08-04T05:36:48.415Z,18.90
2022-08-04T05:39:37.281Z,19.20
2022-08-04T05:42:07.386Z,19.20
2022-08-04T05:44:36.119Z,19.30
2022-08-04T05:49:33.957Z,19.70
2022-08-04T05:52:02.028Z,19.80
2022-08-04T05:54:32.288Z,19.90
2022-08-04T05:57:00.047Z,20.30
2022-08-04T05:59:29.433Z,20.50
2022-08-04T06:02:00.358Z,20.40
2022-08-04T06:04:42.684Z,20.40
2022-08-04T06:07:13.018Z,20.50
2022-08-04T06:09:41.698Z,20.60
2022-08-04T06:12:15.036Z,20.60
2022-08-04T06:14:48.845Z,20.80
2022-08-04T06:18:35.376Z,20.80
2022-08-04T06:20:19.167Z,20.90
2022-08-04T06:22:50.726Z,21.00
2022-08-04T06:25:22.382Z,21.20
2022-08-04T06:27:51.244Z,21.20
2022-08-04T06:30:19.974Z,21.40
2022-08-04T06:43:03.473Z,22.10
2022-08-04T06:45:31.915Z,22.10
2022-08-04T06:48:00.147Z,22.20
2022-08-04T06:51:32.751Z,22.60
2022-08-04T06:53:15.460Z,22.40
2022-08-04T06:55:49.305Z,22.40
2022-08-04T06:58:17.620Z,22.70
2022-08-04T07:00:47.083Z,22.60
2022-08-04T07:03:14.698Z,22.70
2022-08-04T07:05:42.413Z,22.80
2022-08-04T07:08:12.437Z,22.90
2022-08-04T07:10:40.731Z,23.00
2022-08-04T07:13:09.594Z,23.20
2022-08-04T07:18:05.329Z,23.00
2022-08-04T07:20:36.191Z,23.00
2022-08-04T07:23:07.498Z,23.10
2022-08-04T07:26:01.190Z,23.20
2022-08-04T07:28:29.995Z,23.30
2022-08-04T07:30:58.388Z,23.40
2022-08-04T07:33:26.162Z,23.50
2022-08-04T07:36:09.972Z,23.50
2022-08-04T07:38:48.472Z,23.60
2022-08-04T07:41:40.684Z,23.80
2022-08-04T07:44:08.623Z,23.90
2022-08-04T07:46:36.950Z,23.90
2022-08-04T07:49:05.307Z,23.90
2022-08-04T07:51:33.345Z,24.10
2022-08-04T07:54:03.453Z,24.10
2022-08-04T07:56:31.538Z,24.30
2022-08-04T07:58:59.990Z,24.20
2022-08-04T08:01:27.485Z,24.40
2022-08-04T08:03:57.038Z,24.40
2022-08-04T08:06:32.107Z,24.40
2022-08-04T08:09:13.276Z,24.30
2022-08-04T08:12:35.187Z,24.30
2022-08-04T08:14:35.616Z,24.40
2022-08-04T08:17:03.829Z,24.40
2022-08-04T08:19:37.348Z,24.50
2022-08-04T08:22:04.960Z,24.50
2022-08-04T08:24:37.322Z,24.70
2022-08-04T08:27:05.002Z,24.80
2022-08-04T08:29:35.014Z,24.80
2022-08-04T08:32:08.104Z,24.80
2022-08-04T08:34:36.553Z,24.80
2022-08-04T08:37:14.490Z,25.00
2022-08-04T08:39:59.154Z,25.00
2022-08-04T08:42:36.908Z,25.10
2022-08-04T08:45:37.919Z,25.30
2022-08-04T08:48:23.713Z,24.80
2022-08-04T08:51:12.135Z,24.90
2022-08-04T08:53:54.087Z,24.80
2022-08-04T08:56:55.738Z,25.10
2022-08-04T08:59:34.315Z,25.10
2022-08-04T09:02:32.741Z,25.20
2022-08-04T09:05:18.049Z,25.10
2022-08-04T09:07:50.509Z,25.30
2022-08-04T09:10:33.037Z,25.40
2022-08-04T09:13:10.637Z,25.50
2022-08-04T09:15:53.897Z,25.50
2022-08-04T09:18:47.330Z,25.80
2022-08-04T09:21:33.869Z,25.90
2022-08-04T09:24:36.694Z,26.00
2022-08-04T09:27:03.748Z,25.80
2022-08-04T09:29:39.420Z,25.90
2022-08-04T09:32:34.731Z,25.90
2022-08-04T09:35:28.592Z,25.90
2022-08-04T09:38:15.069Z,25.90
2022-08-04T09:41:06.631Z,25.80
2022-08-04T09:44:49.761Z,25.90
2022-08-04T09:47:09.078Z,25.90
2022-08-04T09:49:53.217Z,25.90
2022-08-04T09:52:44.192Z,25.80
2022-08-04T09:55:17.077Z,26.00
2022-08-04T09:58:22.900Z,25.90
2022-08-04T10:01:05.323Z,25.90
2022-08-04T10:03:49.616Z,25.80
2022-08-04T10:06:19.633Z,25.90
2022-08-04T10:09:24.080Z,25.90
2022-08-04T10:12:24.225Z,25.90
2022-08-04T10:15:01.737Z,25.90
2022-08-04T10:17:39.532Z,25.60
2022-08-04T10:20:45.806Z,25.60
2022-08-04T10:23:56.113Z,25.80
2022-08-04T10:26:45.681Z,25.90
2022-08-04T10:29:30.818Z,25.90
2022-08-04T10:32:09.528Z,25.90
2022-08-04T10:34:46.187Z,26.00
2022-08-04T10:37:59.230Z,26.20
2022-08-04T10:40:45.484Z,26.20
2022-08-04T10:43:46.313Z,26.10
2022-08-04T10:46:26.273Z,25.90
2022-08-04T10:49:14.870Z,26.00
2022-08-04T10:51:58.973Z,26.00
2022-08-04T10:55:03.914Z,26.00
2022-08-04T10:57:35.468Z,26.20
2022-08-04T11:00:06.614Z,26.30
2022-08-04T11:02:54.795Z,26.20
2022-08-04T11:05:28.085Z,26.30
2022-08-04T11:08:11.449Z,26.30
2022-08-04T11:10:59.350Z,26.40
2022-08-04T11:13:34.308Z,26.30
2022-08-04T11:16:07.165Z,26.50
2022-08-04T11:18:39.597Z,26.50
2022-08-04T11:21:21.515Z,26.40
2022-08-04T11:24:16.653Z,26.30
2022-08-04T11:26:51.221Z,26.40
2022-08-04T11:29:42.385Z,26.40
2022-08-04T11:32:17.449Z,26.50
2022-08-04T11:34:53.018Z,26.60
2022-08-04T11:37:28.826Z,26.70
2022-08-04T11:40:11.655Z,26.50
2022-08-04T11:42:43.217Z,26.60
2022-08-04T11:45:20.280Z,26.80
2022-08-04T11:47:57.714Z,26.80
2022-08-04T11:50:55.350Z,26.80
2022-08-04T11:53:25.630Z,26.70
2022-08-04T11:56:07.749Z,26.60
2022-08-04T11:58:37.251Z,26.60
2022-08-04T12:01:34.950Z,26.50
2022-08-04T12:04:12.532Z,26.30
2022-08-04T12:06:56.857Z,26.40
2022-08-04T12:09:43.868Z,26.40
2022-08-04T12:12:32.577Z,26.40
2022-08-04T12:15:23.638Z,26.20
2022-08-04T12:18:19.519Z,26.20
2022-08-04T12:20:50.993Z,26.20
2022-08-04T12:23:29.835Z,26.40
2022-08-04T12:26:05.393Z,26.50
2022-08-04T12:29:07.256Z,26.60
2022-08-04T12:31:29.784Z,26.50
2022-08-04T12:34:22.990Z,26.40
2022-08-04T12:37:03.200Z,26.20
2022-08-04T12:39:31.876Z,26.30
2022-08-04T12:42:21.582Z,26.50
2022-08-04T12:44:54.259Z,26.50
2022-08-04T12:47:29.046Z,26.70
2022-08-04T12:50:02.705Z,26.70
2022-08-04T12:53:08.480Z,26.90
2022-08-04T12:55:37.181Z,26.90
2022-08-04T12:58:16.081Z,27.10
2022-08-04T13:00:47.696Z,27.20
2022-08-04T13:03:16.899Z,27.30
2022-08-04T13:05:44.954Z,27.50
2022-08-04T13:08:13.836Z,27.50
2022-08-04T13:10:45.002Z,27.40
2022-08-04T13:13:39.077Z,27.40
2022-08-04T13:16:08.979Z,27.00
2022-08-04T13:18:46.678Z,27.00
2022-08-04T13:21:19.533Z,26.90
2022-08-04T13:24:19.796Z,27.00
2022-08-04T13:26:54.452Z,26.90
2022-08-04T13:30:00.573Z,26.90
2022-08-04T13:32:23.044Z,26.80
2022-08-04T13:34:53.863Z,26.80
2022-08-04T13:37:26.846Z,26.80
2022-08-04T13:39:56.588Z,26.70
2022-08-04T13:42:27.082Z,26.70
2022-08-04T13:44:58.848Z,26.60
2022-08-04T13:47:31.976Z,26.60
2022-08-04T13:50:13.982Z,26.60
2022-08-04T13:52:42.893Z,26.60
2022-08-04T13:55:22.129Z,26.50
2022-08-04T13:57:50.682Z,26.50
2022-08-04T14:00:29.030Z,26.50
2022-08-04T14:03:23.916Z,26.50
2022-08-04T14:06:24.532Z,26.40
2022-08-04T14:09:10.085Z,26.50
2022-08-04T14:12:10.800Z,26.40
2022-08-04T14:14:29.694Z,26.40
2022-08-04T14:17:19.831Z,26.40
2022-08-04T14:19:47.009Z,26.30
2022-08-04T14:22:26.969Z,26.30
2022-08-04T14:25:15.568Z,26.30
2022-08-04T14:27:45.422Z,26.20
2022-08-04T14:30:24.273Z,26.20
2022-08-04T14:32:58.417Z,26.10
2022-08-04T14:35:38.318Z,26.10
2022-08-04T14:38:13.973Z,26.00
2022-08-04T14:40:44.231Z,26.00
2022-08-04T14:43:11.164Z,26.10
2022-08-04T14:45:54.338Z,26.10
2022-08-04T14:48:23.096Z,26.00
2022-08-04T14:50:51.200Z,26.00
2022-08-04T14:53:21.320Z,25.90
2022-08-04T14:55:50.698Z,26.00
2022-08-04T14:58:38.747Z,25.90
2022-08-04T15:01:12.964Z,26.00
2022-08-04T15:03:48.234Z,25.90
2022-08-04T15:06:22.598Z,25.90
2022-08-04T15:08:53.124Z,25.80
2022-08-04T15:11:23.660Z,25.80
2022-08-04T15:13:52.832Z,25.80
2022-08-04T15:16:22.084Z,25.80
2022-08-04T15:18:49.898Z,25.80
2022-08-04T15:21:17.686Z,25.80
2022-08-04T15:23:44.926Z,25.80
2022-08-04T15:26:16.132Z,25.80
2022-08-04T15:28:56.018Z,25.80
2022-08-04T15:32:03.791Z,25.70
2022-08-04T15:34:16.246Z,25.60
2022-08-04T15:36:57.557Z,25.50
2022-08-04T15:39:58.651Z,25.40
2022-08-04T15:42:41.607Z,25.30
2022-08-04T15:45:20.158Z,25.10
2022-08-04T15:48:22.317Z,25.00
2022-08-04T15:50:58.784Z,24.90
2022-08-04T15:54:01.442Z,24.90
2022-08-04T15:56:27.452Z,24.90
2022-08-04T15:58:57.000Z,25.00
2022-08-04T16:01:25.047Z,25.00
2022-08-04T16:03:59.803Z,25.00
2022-08-04T16:06:29.401Z,25.00
2022-08-04T16:09:06.303Z,25.00
2022-08-04T16:11:37.260Z,25.00
2022-08-04T16:14:06.297Z,25.00
2022-08-04T16:16:40.848Z,25.00
2022-08-04T16:19:10.399Z,25.00
2022-08-04T16:21:55.497Z,25.00
2022-08-04T16:24:28.224Z,25.00
2022-08-04T16:27:00.590Z,25.00
2022-08-04T16:29:44.664Z,25.00
2022-08-04T16:32:13.576Z,24.90
2022-08-04T16:34:56.461Z,24.90
2022-08-04T16:37:29.991Z,24.90
2022-08-04T16:40:38.442Z,24.80
2022-08-04T16:43:14.727Z,24.80
2022-08-04T16:45:52.637Z,24.80
2022-08-04T16:48:27.110Z,24.80
2022-08-04T16:51:04.647Z,24.70
2022-08-04T16:53:52.030Z,24.70
2022-08-04T16:56:32.963Z,24.70
2022-08-04T16:59:09.408Z,24.70
2022-08-04T17:01:37.558Z,24.60
2022-08-04T17:04:05.745Z,24.60
2022-08-04T17:06:39.046Z,24.60
2022-08-04T17:09:28.782Z,24.40
2022-08-04T17:11:57.287Z,24.30
2022-08-04T17:14:27.121Z,24.30
2022-08-04T17:17:00.486Z,24.20
2022-08-04T17:19:28.655Z,24.10
2022-08-04T17:22:05.214Z,24.00
2022-08-04T17:24:38.916Z,24.00
2022-08-04T17:28:19.030Z,23.90
2022-08-04T17:29:55.925Z,23.90
2022-08-04T17:32:24.412Z,23.90
2022-08-04T17:34:54.761Z,23.80
2022-08-04T17:37:40.557Z,23.80
2022-08-04T17:40:18.421Z,23.70
2022-08-04T17:42:50.887Z,23.60
2022-08-04T17:45:53.804Z,23.50
2022-08-04T17:48:09.627Z,23.30
2022-08-04T17:54:01.485Z,23.00
2022-08-04T17:56:36.448Z,22.70
2022-08-04T17:59:55.738Z,22.70
2022-08-04T18:02:13.517Z,22.50
2022-08-04T18:05:05.570Z,22.40
2022-08-04T18:08:45.630Z,22.50
2022-08-04T18:16:21.888Z,22.10
2022-08-04T18:19:08.965Z,21.80
2022-08-04T18:24:28.579Z,21.80
2022-08-04T18:27:06.680Z,21.40
2022-08-04T18:29:39.025Z,21.60
2022-08-04T18:32:07.205Z,21.30
2022-08-04T18:38:05.532Z,21.40
2022-08-04T18:43:00.526Z,20.70
2022-08-04T18:45:34.005Z,20.80
2022-08-04T18:48:02.516Z,20.70
2022-08-04T18:51:00.985Z,20.50
2022-08-04T18:53:18.189Z,20.70
2022-08-04T18:55:56.878Z,20.50
2022-08-04T18:58:26.652Z,20.30
2022-08-04T19:00:56.064Z,20.20
2022-08-04T19:03:27.203Z,20.10
2022-08-04T19:05:59.982Z,20.00
2022-08-04T19:08:33.326Z,19.90
2022-08-04T19:11:35.257Z,19.80
2022-08-04T19:13:54.767Z,20.00
2022-08-04T19:16:30.850Z,19.60
2022-08-04T19:19:02.558Z,19.50
2022-08-04T19:22:08.585Z,19.50
2022-08-04T19:24:32.242Z,19.40
2022-08-04T19:29:40.689Z,19.20
2022-08-04T19:34:59.430Z,19.20
2022-08-04T19:37:58.391Z,19.20
2022-08-04T19:40:16.186Z,19.00
2022-08-04T19:43:14.467Z,18.90
2022-08-04T19:45:45.277Z,18.80
2022-08-04T19:48:19.115Z,18.70
2022-08-04T19:50:47.271Z,18.70
2022-08-04T19:53:18.858Z,18.60
2022-08-04T19:55:50.058Z,18.70
2022-08-04T19:58:19.910Z,18.60
2022-08-04T20:00:53.187Z,18.60
2022-08-04T20:03:21.061Z,18.50
2022-08-04T20:05:54.011Z,18.40
2022-08-04T20:08:31.467Z,18.30
2022-08-04T20:11:00.047Z,18.10
2022-08-04T20:19:04.497Z,18.00
2022-08-04T20:21:53.629Z,18.20
2022-08-04T20:24:37.620Z,18.20
2022-08-04T20:27:11.784Z,18.00
2022-08-04T20:29:48.624Z,18.00
2022-08-04T20:35:07.543Z,17.70
2022-08-04T20:37:55.504Z,17.70
2022-08-04T20:40:27.484Z,17.60
2022-08-04T20:42:54.410Z,17.50
2022-08-04T20:45:24.350Z,17.50
2022-08-04T20:48:11.284Z,17.50
2022-08-04T20:50:38.355Z,17.40
2022-08-04T20:53:16.288Z,17.50
2022-08-04T20:55:47.262Z,17.50
2022-08-04T20:58:27.325Z,17.40
2022-08-04T21:00:55.550Z,17.30
2022-08-04T21:03:38.541Z,17.20
2022-08-04T21:06:10.294Z,17.20
2022-08-04T21:08:37.505Z,17.20
2022-08-04T21:13:51.910Z,17.30
2022-08-04T21:16:54.022Z,17.20
2022-08-04T21:19:13.186Z,17.30
2022-08-04T21:21:42.182Z,17.10
2022-08-04T21:24:09.828Z,17.00
2022-08-04T21:26:37.396Z,17.00
2022-08-04T21:31:36.839Z,17.00
2022-08-04T21:44:58.169Z,16.70
2022-08-04T21:47:25.276Z,16.50
2022-08-04T21:52:24.853Z,16.50
2022-08-04T22:02:47.081Z,16.30
2022-08-04T22:07:50.996Z,16.40
2022-08-04T22:13:07.827Z,16.50
2022-08-04T22:33:54.468Z,16.10
2022-08-04T22:36:24.785Z,16.00
2022-08-04T22:41:48.816Z,15.80
2022-08-04T22:54:19.548Z,15.90
2022-08-04T22:56:46.687Z,15.80
2022-08-04T22:59:13.872Z,16.00
2022-08-04T23:01:59.284Z,16.00
2022-08-04T23:04:27.071Z,15.70
2022-08-04T23:06:54.846Z,15.80
2022-08-04T23:09:22.279Z,15.60
2022-08-04T23:12:24.395Z,15.60
2022-08-04T23:30:11.466Z,14.80
2022-08-04T23:32:38.409Z,15.60
2022-08-04T23:35:05.876Z,15.50
2022-08-04T23:37:37.321Z,15.60
2022-08-04T23:40:33.366Z,15.50
2022-08-04T23:43:17.168Z,15.40
2022-08-04T23:46:03.967Z,15.30
2022-08-04T23:48:33.278Z,15.20
2022-08-04T23:51:13.712Z,15.10
2022-08-04T23:54:01.659Z,15.10
2022-08-04T23:56:29.808Z,15.00
2022-08-04T23:58:56.925Z,15.10
